createdAt,value
2023-11-14T00:01:58.394Z,100.00
2023-11-14T00:04:00.062Z,100.00
2023-11-14T00:06:01.626Z,100.00
2023-11-14T00:08:03.464Z,100.00
2023-11-14T00:10:07.762Z,100.00
2023-11-14T00:12:09.361Z,100.00
2023-11-14T00:14:10.922Z,100.00
2023-11-14T00:16:12.524Z,100.00
2023-11-14T00:18:14.386Z,100.00
2023-11-14T00:20:16.129Z,100.00
2023-11-14T00:22:17.656Z,100.00
2023-11-14T00:24:19.204Z,100.00
2023-11-14T00:26:22.136Z,100.00
2023-11-14T00:28:23.639Z,100.00
2023-11-14T00:30:25.145Z,100.00
2023-11-14T00:32:26.767Z,100.00
2023-11-14T00:34:28.296Z,100.00
2023-11-14T00:36:29.783Z,100.00
2023-11-14T00:38:31.345Z,100.00
2023-11-14T00:40:32.920Z,100.00
2023-11-14T00:42:35.821Z,100.00
2023-11-14T00:44:37.393Z,100.00
2023-11-14T00:46:38.968Z,100.00
2023-11-14T00:48:40.704Z,100.00
2023-11-14T00:50:42.366Z,100.00
2023-11-14T00:52:43.895Z,100.00
2023-11-14T00:54:45.550Z,100.00
2023-11-14T00:56:47.077Z,100.00
2023-11-14T00:58:50.623Z,100.00
2023-11-14T01:00:52.268Z,100.00
2023-11-14T01:02:54.058Z,100.00
2023-11-14T01:04:55.719Z,100.00
2023-11-14T01:06:57.261Z,100.00
2023-11-14T01:08:58.952Z,100.00
2023-11-14T01:11:00.621Z,100.00
2023-11-14T01:13:02.232Z,100.00
2023-11-14T01:15:05.817Z,100.00
2023-11-14T01:17:07.394Z,100.00
2023-11-14T01:19:09.071Z,100.00
2023-11-14T01:21:15.729Z,100.00
2023-11-14T01:23:17.361Z,100.00
2023-11-14T01:25:19.011Z,100.00
2023-11-14T01:27:20.582Z,100.00
2023-11-14T01:29:22.118Z,100.00
2023-11-14T01:31:25.133Z,100.00
2023-11-14T01:33:26.706Z,100.00
2023-11-14T01:35:28.407Z,100.00
2023-11-14T01:37:30.006Z,100.00
2023-11-14T01:39:31.545Z,100.00
2023-11-14T01:41:33.178Z,100.00
2023-11-14T01:43:41.764Z,100.00
2023-11-14T01:45:43.442Z,100.00
2023-11-14T01:47:46.530Z,100.00
2023-11-14T01:49:48.289Z,100.00
2023-11-14T01:51:50.165Z,100.00
2023-11-14T01:53:53.080Z,100.00
2023-11-14T01:55:55.165Z,100.00
2023-11-14T01:57:56.922Z,100.00
2023-11-14T01:59:59.491Z,100.00
2023-11-14T02:02:01.182Z,100.00
2023-11-14T02:04:09.886Z,100.00
2023-11-14T02:06:11.540Z,100.00
2023-11-14T02:08:13.360Z,100.00
2023-11-14T02:10:15.013Z,100.00
2023-11-14T02:12:16.644Z,100.00
2023-11-14T02:14:18.324Z,100.00
2023-11-14T02:16:19.920Z,100.00
2023-11-14T02:18:21.567Z,100.00
2023-11-14T02:20:24.476Z,100.00
2023-11-14T02:22:27.573Z,100.00
2023-11-14T02:24:31.457Z,100.00
2023-11-14T02:26:34.879Z,100.00
2023-11-14T02:28:36.489Z,100.00
2023-11-14T02:30:38.610Z,100.00
2023-11-14T02:32:40.392Z,100.00
2023-11-14T02:34:42.096Z,100.00
2023-11-14T02:36:43.702Z,100.00
2023-11-14T02:38:45.217Z,100.00
2023-11-14T02:40:47.494Z,100.00
2023-11-14T02:42:50.774Z,100.00
2023-11-14T02:44:52.354Z,100.00
2023-11-14T02:46:53.945Z,100.00
2023-11-14T02:48:55.585Z,100.00
2023-11-14T02:50:57.545Z,100.00
2023-11-14T02:52:59.106Z,100.00
2023-11-14T02:55:00.667Z,100.00
2023-11-14T02:57:02.235Z,100.00
2023-11-14T02:59:05.288Z,100.00
2023-11-14T03:01:06.967Z,100.00
2023-11-14T03:03:08.863Z,100.00
2023-11-14T03:05:10.531Z,100.00
2023-11-14T03:07:12.140Z,100.00
2023-11-14T03:09:13.664Z,100.00
2023-11-14T03:11:15.211Z,100.00
2023-11-14T03:13:16.779Z,100.00
2023-11-14T03:15:19.678Z,100.00
2023-11-14T03:17:21.221Z,100.00
2023-11-14T03:19:23.124Z,100.00
2023-11-14T03:21:24.696Z,100.00
2023-11-14T03:23:26.198Z,100.00
2023-11-14T03:25:27.755Z,100.00
2023-11-14T03:27:29.298Z,100.00
2023-11-14T03:29:30.805Z,100.00
2023-11-14T03:31:33.765Z,100.00
2023-11-14T03:33:35.374Z,100.00
2023-11-14T03:35:36.903Z,100.00
2023-11-14T03:37:38.421Z,100.00
2023-11-14T03:39:41.461Z,100.00
2023-11-14T03:41:42.944Z,100.00
2023-11-14T03:43:44.513Z,100.00
2023-11-14T03:45:46.108Z,100.00
2023-11-14T03:47:49.126Z,100.00
2023-11-14T03:49:50.712Z,100.00
2023-11-14T03:51:52.253Z,100.00
2023-11-14T03:53:53.776Z,100.00
2023-11-14T03:55:55.327Z,100.00
2023-11-14T03:57:56.823Z,100.00
2023-11-14T03:59:58.453Z,100.00
2023-11-14T04:02:00.028Z,100.00
2023-11-14T04:04:03.014Z,100.00
2023-11-14T04:06:05.201Z,100.00
2023-11-14T04:08:06.797Z,100.00
2023-11-14T04:10:08.973Z,100.00
2023-11-14T04:12:10.584Z,100.00
2023-11-14T04:14:12.213Z,100.00
2023-11-14T04:16:13.814Z,100.00
2023-11-14T04:18:15.542Z,100.00
2023-11-14T04:20:18.482Z,100.00
2023-11-14T04:22:19.968Z,100.00
2023-11-14T04:24:21.510Z,100.00
2023-11-14T04:26:23.098Z,100.00
2023-11-14T04:28:24.657Z,100.00
2023-11-14T04:30:26.212Z,100.00
2023-11-14T04:32:27.860Z,100.00
2023-11-14T04:34:29.941Z,100.00
2023-11-14T04:36:32.959Z,100.00
2023-11-14T04:38:35.151Z,100.00
2023-11-14T04:40:36.773Z,100.00
2023-11-14T04:42:38.306Z,100.00
2023-11-14T04:44:39.934Z,100.00
2023-11-14T04:46:43.549Z,100.00
2023-11-14T04:48:45.201Z,100.00
2023-11-14T04:50:46.743Z,100.00
2023-11-14T04:52:49.658Z,100.00
2023-11-14T04:54:51.209Z,100.00
2023-11-14T04:56:52.716Z,100.00
2023-11-14T04:58:54.526Z,100.00
2023-11-14T05:00:56.219Z,100.00
2023-11-14T05:02:57.880Z,100.00
2023-11-14T05:04:59.461Z,100.00
2023-11-14T05:07:01.045Z,100.00
2023-11-14T05:09:04.207Z,100.00
2023-11-14T05:11:06.596Z,100.00
2023-11-14T05:13:08.216Z,100.00
2023-11-14T05:15:10.494Z,100.00
2023-11-14T05:17:12.085Z,100.00
2023-11-14T05:19:13.815Z,100.00
2023-11-14T05:21:15.495Z,100.00
2023-11-14T05:23:17.296Z,100.00
2023-11-14T05:25:20.274Z,100.00
2023-11-14T05:27:22.005Z,100.00
2023-11-14T05:29:23.570Z,100.00
2023-11-14T05:31:25.152Z,100.00
2023-11-14T05:33:26.682Z,100.00
2023-11-14T05:35:29.054Z,100.00
2023-11-14T05:37:30.731Z,100.00
2023-11-14T05:39:32.300Z,100.00
2023-11-14T05:41:35.173Z,100.00
2023-11-14T05:43:36.730Z,100.00
2023-11-14T05:45:38.324Z,100.00
2023-11-14T05:47:39.981Z,100.00
2023-11-14T05:49:41.605Z,100.00
2023-11-14T05:51:43.276Z,100.00
2023-11-14T05:53:44.807Z,100.00
2023-11-14T05:55:46.477Z,100.00
2023-11-14T05:57:49.528Z,100.00
2023-11-14T05:59:51.050Z,100.00
2023-11-14T06:01:52.836Z,100.00
2023-11-14T06:03:54.695Z,100.00
2023-11-14T06:05:56.444Z,100.00
2023-11-14T06:07:58.031Z,100.00
2023-11-14T06:09:59.530Z,100.00
2023-11-14T06:12:01.076Z,100.00
2023-11-14T06:14:04.042Z,100.00
2023-11-14T06:16:06.598Z,100.00
2023-11-14T06:18:08.184Z,100.00
2023-11-14T06:20:11.097Z,100.00
2023-11-14T06:22:12.846Z,100.00
2023-11-14T06:24:14.562Z,100.00
2023-11-14T06:26:16.157Z,100.00
2023-11-14T06:28:17.738Z,100.00
2023-11-14T06:30:21.017Z,100.00
2023-11-14T06:32:22.559Z,100.00
2023-11-14T06:34:24.111Z,100.00
2023-11-14T06:36:25.684Z,100.00
2023-11-14T06:38:27.737Z,100.00
2023-11-14T06:40:29.986Z,100.00
2023-11-14T06:42:31.667Z,100.00
2023-11-14T06:44:33.373Z,100.00
2023-11-14T06:46:36.284Z,100.00
2023-11-14T06:48:37.887Z,100.00
2023-11-14T06:50:44.491Z,100.00
2023-11-14T06:52:47.129Z,100.00
2023-11-14T06:54:48.684Z,100.00
2023-11-14T06:56:50.223Z,100.00
2023-11-14T06:58:51.752Z,100.00
2023-11-14T07:00:53.373Z,100.00
2023-11-14T07:02:56.405Z,100.00
2023-11-14T07:04:58.056Z,100.00
2023-11-14T07:06:59.615Z,100.00
2023-11-14T07:09:01.103Z,100.00
2023-11-14T07:11:02.684Z,100.00
2023-11-14T07:13:04.240Z,100.00
2023-11-14T07:15:06.949Z,100.00
2023-11-14T07:17:08.506Z,100.00
2023-11-14T07:19:11.402Z,100.00
2023-11-14T07:21:12.920Z,100.00
2023-11-14T07:23:14.481Z,100.00
2023-11-14T07:25:16.054Z,100.00
2023-11-14T07:27:17.571Z,100.00
2023-11-14T07:29:19.160Z,100.00
2023-11-14T07:31:20.760Z,100.00
2023-11-14T07:33:22.337Z,100.00
2023-11-14T07:35:25.213Z,100.00
2023-11-14T07:37:26.729Z,100.00
2023-11-14T07:39:28.225Z,100.00
2023-11-14T07:41:29.938Z,100.00
2023-11-14T07:43:31.516Z,100.00
2023-11-14T07:45:33.313Z,100.00
2023-11-14T07:47:34.957Z,100.00
2023-11-14T07:49:36.649Z,100.00
2023-11-14T07:51:39.556Z,100.00
2023-11-14T07:53:41.082Z,100.00
2023-11-14T07:55:42.933Z,100.00
2023-11-14T07:57:44.507Z,100.00
2023-11-14T07:59:46.028Z,100.00
2023-11-14T08:01:47.554Z,100.00
2023-11-14T08:03:49.208Z,100.00
2023-11-14T08:05:53.071Z,100.00
2023-11-14T08:07:56.175Z,100.00
2023-11-14T08:09:57.733Z,100.00
2023-11-14T08:11:59.302Z,100.00
2023-11-14T08:14:00.886Z,100.00
2023-11-14T08:16:02.534Z,100.00
2023-11-14T08:18:04.107Z,100.00
2023-11-14T08:20:06.435Z,100.00
2023-11-14T08:22:07.953Z,100.00
2023-11-14T08:24:11.012Z,100.00
2023-11-14T08:26:12.601Z,100.00
2023-11-14T08:28:14.247Z,100.00
2023-11-14T08:30:16.121Z,100.00
2023-11-14T08:32:17.747Z,100.00
2023-11-14T08:34:19.308Z,100.00
2023-11-14T08:36:20.840Z,100.00
2023-11-14T08:38:22.398Z,100.00
2023-11-14T08:40:25.280Z,100.00
2023-11-14T08:42:26.818Z,100.00
2023-11-14T08:44:28.340Z,100.00
2023-11-14T08:46:29.861Z,100.00
2023-11-14T08:48:31.505Z,100.00
2023-11-14T08:50:33.039Z,100.00
2023-11-14T08:52:34.543Z,100.00
2023-11-14T08:54:36.110Z,99.80
2023-11-14T08:56:38.971Z,99.82
2023-11-14T08:58:40.511Z,99.36
2023-11-14T09:00:42.063Z,99.07
2023-11-14T09:02:43.717Z,99.13
2023-11-14T09:04:45.299Z,99.33
2023-11-14T09:06:48.808Z,98.94
2023-11-14T09:08:51.546Z,99.58
2023-11-14T09:10:53.145Z,99.26
2023-11-14T09:12:56.008Z,98.94
2023-11-14T09:14:57.533Z,98.82
2023-11-14T09:16:59.218Z,98.00
2023-11-14T09:19:00.910Z,98.48
2023-11-14T09:21:02.656Z,98.29
2023-11-14T09:23:05.647Z,98.80
2023-11-14T09:25:07.952Z,98.31
2023-11-14T09:27:09.554Z,98.42
2023-11-14T09:29:12.428Z,98.19
2023-11-14T09:31:14.061Z,97.98
2023-11-14T09:33:15.589Z,97.57
2023-11-14T09:35:17.560Z,98.27
2023-11-14T09:37:19.339Z,98.28
2023-11-14T09:39:26.532Z,97.64
2023-11-14T09:41:30.239Z,97.75
2023-11-14T09:43:33.320Z,97.09
2023-11-14T09:45:37.146Z,97.52
2023-11-14T09:47:38.583Z,97.32
2023-11-14T09:49:40.201Z,97.25
2023-11-14T09:51:43.076Z,96.61
2023-11-14T09:53:45.031Z,97.03
2023-11-14T09:55:46.926Z,97.12
2023-11-14T09:57:49.964Z,96.91
2023-11-14T09:59:51.963Z,95.10
2023-11-14T10:01:55.016Z,95.14
2023-11-14T10:03:57.075Z,95.01
2023-11-14T10:05:58.681Z,95.75
2023-11-14T10:08:00.607Z,96.55
2023-11-14T10:10:02.369Z,96.04
2023-11-14T10:12:17.740Z,96.14
2023-11-14T10:14:25.208Z,96.14
2023-11-14T10:16:26.829Z,95.67
2023-11-14T10:18:32.776Z,95.61
2023-11-14T10:20:47.433Z,95.63
2023-11-14T10:22:52.263Z,95.98
2023-11-14T10:24:53.637Z,95.79
2023-11-14T10:26:55.261Z,95.52
2023-11-14T10:28:58.813Z,96.58
2023-11-14T10:31:15.228Z,96.22
2023-11-14T10:33:19.075Z,96.62
2023-11-14T10:35:22.668Z,96.84
2023-11-14T10:37:32.459Z,96.77
2023-11-14T10:39:34.034Z,96.89
2023-11-14T10:41:35.680Z,96.82
2023-11-14T10:43:37.644Z,96.03
2023-11-14T10:45:39.349Z,96.32
2023-11-14T10:47:42.413Z,97.09
2023-11-14T10:49:47.214Z,97.22
2023-11-14T10:51:51.646Z,97.45
2023-11-14T10:53:54.260Z,97.01
2023-11-14T10:55:56.610Z,97.70
2023-11-14T10:57:58.544Z,97.52
2023-11-14T11:00:01.578Z,97.56
2023-11-14T11:02:04.350Z,97.57
2023-11-14T11:04:07.587Z,97.12
2023-11-14T11:06:09.570Z,97.14
2023-11-14T11:08:14.105Z,95.47
2023-11-14T11:10:16.886Z,95.40
2023-11-14T11:12:18.964Z,95.14
2023-11-14T11:14:22.601Z,94.47
2023-11-14T11:16:44.145Z,94.59
2023-11-14T11:18:47.105Z,95.16
2023-11-14T11:20:49.175Z,94.64
2023-11-14T11:23:05.153Z,94.29
2023-11-14T11:25:23.327Z,93.74
2023-11-14T11:27:24.926Z,93.04
2023-11-14T11:29:49.484Z,94.51
2023-11-14T11:32:24.584Z,94.46
2023-11-14T11:34:28.996Z,94.17
2023-11-14T11:36:33.763Z,93.92
2023-11-14T11:38:35.295Z,93.63
2023-11-14T11:41:14.580Z,93.50
2023-11-14T11:43:18.657Z,93.21
2023-11-14T11:45:33.439Z,92.70
2023-11-14T11:47:35.599Z,92.69
2023-11-14T11:49:37.600Z,92.30
2023-11-14T11:51:39.977Z,91.66
2023-11-14T11:53:41.630Z,91.04
2023-11-14T11:55:44.550Z,92.78
2023-11-14T11:57:46.083Z,93.61
2023-11-14T12:00:19.322Z,92.46
2023-11-14T12:02:22.123Z,92.17
2023-11-14T12:04:24.843Z,92.18
2023-11-14T12:06:27.321Z,92.58
2023-11-14T12:08:28.887Z,93.01
2023-11-14T12:10:30.434Z,92.92
2023-11-14T12:12:37.958Z,91.44
2023-11-14T12:14:40.277Z,91.21
2023-11-14T12:16:42.257Z,90.90
2023-11-14T12:18:43.772Z,89.60
2023-11-14T12:20:46.461Z,89.38
2023-11-14T12:22:48.636Z,89.73
2023-11-14T12:24:50.216Z,88.63
2023-11-14T12:26:51.962Z,89.12
2023-11-14T12:28:56.519Z,88.51
2023-11-14T12:30:58.369Z,88.82
2023-11-14T12:33:05.611Z,87.69
2023-11-14T12:35:08.329Z,88.17
2023-11-14T12:37:12.392Z,87.50
2023-11-14T12:39:15.306Z,87.70
2023-11-14T12:41:18.564Z,87.63
2023-11-14T12:43:20.169Z,87.40
2023-11-14T12:45:23.073Z,87.21
2023-11-14T12:47:24.706Z,87.51
2023-11-14T12:49:26.299Z,87.57
2023-11-14T12:51:27.846Z,87.87
2023-11-14T12:53:31.028Z,87.07
2023-11-14T12:55:32.614Z,86.85
2023-11-14T12:57:34.569Z,87.16
2023-11-14T12:59:36.885Z,87.71
2023-11-14T13:01:41.463Z,87.40
2023-11-14T13:03:43.037Z,87.53
2023-11-14T13:05:44.674Z,87.40
2023-11-14T13:07:46.228Z,86.69
2023-11-14T13:09:47.822Z,87.23
2023-11-14T13:11:49.440Z,87.55
2023-11-14T13:13:51.032Z,87.66
2023-11-14T13:15:52.564Z,88.00
2023-11-14T13:17:55.531Z,87.32
2023-11-14T13:19:57.853Z,87.75
2023-11-14T13:22:00.546Z,87.54
2023-11-14T13:24:02.936Z,86.87
2023-11-14T13:26:05.070Z,86.43
2023-11-14T13:28:06.597Z,86.40
2023-11-14T13:30:09.024Z,86.35
2023-11-14T13:32:10.687Z,86.58
2023-11-14T13:34:13.632Z,87.21
2023-11-14T13:36:15.180Z,87.44
2023-11-14T13:38:16.799Z,86.34
2023-11-14T13:40:18.322Z,86.05
2023-11-14T13:42:19.848Z,86.64
2023-11-14T13:44:21.381Z,86.61
2023-11-14T13:46:27.569Z,87.10
2023-11-14T13:48:30.314Z,86.61
2023-11-14T13:50:33.213Z,86.24
2023-11-14T13:52:34.777Z,86.07
2023-11-14T13:54:37.115Z,86.13
2023-11-14T13:56:38.690Z,86.91
2023-11-14T13:58:40.286Z,86.54
2023-11-14T14:00:41.805Z,86.76
2023-11-14T14:02:43.481Z,86.31
2023-11-14T14:04:45.180Z,86.32
2023-11-14T14:06:48.030Z,87.14
2023-11-14T14:08:49.558Z,87.12
2023-11-14T14:10:51.246Z,87.26
2023-11-14T14:12:52.798Z,87.62
2023-11-14T14:14:54.465Z,87.76
2023-11-14T14:16:56.175Z,87.64
2023-11-14T14:18:57.798Z,88.58
2023-11-14T14:20:59.333Z,88.83
2023-11-14T14:23:02.259Z,89.21
2023-11-14T14:25:05.776Z,89.20
2023-11-14T14:27:07.345Z,88.59
2023-11-14T14:29:09.048Z,89.66
2023-11-14T14:31:10.956Z,90.20
2023-11-14T14:33:12.866Z,90.40
2023-11-14T14:35:14.693Z,90.46
2023-11-14T14:37:16.341Z,90.75
2023-11-14T14:39:19.330Z,92.31
2023-11-14T14:41:20.933Z,92.33
2023-11-14T14:43:22.574Z,92.43
2023-11-14T14:45:24.093Z,92.87
2023-11-14T14:47:25.665Z,92.73
2023-11-14T14:49:27.259Z,93.46
2023-11-14T14:51:28.797Z,93.66
2023-11-14T14:53:30.391Z,93.34
2023-11-14T14:55:33.299Z,93.36
2023-11-14T14:57:34.853Z,93.94
2023-11-14T14:59:36.513Z,94.10
2023-11-14T15:01:38.132Z,94.66
2023-11-14T15:03:41.105Z,95.10
2023-11-14T15:05:42.626Z,94.82
2023-11-14T15:07:44.162Z,95.34
2023-11-14T15:09:46.343Z,95.55
2023-11-14T15:11:49.251Z,95.60
2023-11-14T15:13:50.771Z,96.11
2023-11-14T15:15:52.620Z,96.99
2023-11-14T15:17:54.289Z,96.99
2023-11-14T15:19:55.918Z,97.13
2023-11-14T15:21:57.503Z,97.06
2023-11-14T15:23:59.014Z,97.62
2023-11-14T15:26:00.626Z,98.27
2023-11-14T15:28:03.548Z,98.32
2023-11-14T15:30:06.752Z,98.32
2023-11-14T15:32:10.894Z,97.74
2023-11-14T15:34:13.206Z,98.04
2023-11-14T15:36:14.791Z,98.13
2023-11-14T15:38:16.619Z,98.24
2023-11-14T15:40:18.412Z,98.33
2023-11-14T15:42:20.067Z,98.44
2023-11-14T15:44:22.974Z,98.68
2023-11-14T15:46:24.511Z,99.10
2023-11-14T15:48:26.044Z,99.24
2023-11-14T15:50:27.674Z,99.67
2023-11-14T15:52:29.526Z,99.79
2023-11-14T15:54:31.113Z,99.77
2023-11-14T15:56:32.830Z,100.00
2023-11-14T15:58:34.409Z,100.00
2023-11-14T16:00:37.303Z,100.00
2023-11-14T16:02:38.945Z,99.94
2023-11-14T16:04:40.516Z,99.47
2023-11-14T16:06:42.120Z,99.52
2023-11-14T16:08:43.661Z,100.00
2023-11-14T16:10:45.281Z,99.91
2023-11-14T16:12:46.835Z,99.98
2023-11-14T16:14:48.375Z,100.00
2023-11-14T16:16:51.277Z,100.00
2023-11-14T16:18:52.818Z,100.00
2023-11-14T16:20:54.338Z,100.00
2023-11-14T16:22:55.964Z,100.00
2023-11-14T16:24:57.609Z,100.00
2023-11-14T16:26:59.248Z,100.00
2023-11-14T16:29:00.933Z,100.00
2023-11-14T16:31:02.666Z,100.00
2023-11-14T16:33:05.596Z,100.00
2023-11-14T16:35:07.734Z,100.00
2023-11-14T16:37:09.274Z,100.00
2023-11-14T16:39:10.809Z,100.00
2023-11-14T16:41:12.395Z,100.00
2023-11-14T16:43:14.002Z,99.67
2023-11-14T16:45:15.664Z,100.00
2023-11-14T16:47:17.253Z,100.00
2023-11-14T16:49:20.265Z,100.00
2023-11-14T16:51:22.217Z,100.00
2023-11-14T16:53:23.783Z,100.00
2023-11-14T16:55:25.470Z,100.00
2023-11-14T16:57:26.951Z,100.00
2023-11-14T16:59:28.488Z,100.00
2023-11-14T17:01:30.133Z,100.00
2023-11-14T17:03:31.810Z,100.00
2023-11-14T17:05:34.822Z,100.00
2023-11-14T17:07:36.372Z,100.00
2023-11-14T17:09:38.077Z,100.00
2023-11-14T17:11:39.604Z,100.00
2023-11-14T17:13:41.180Z,100.00
2023-11-14T17:15:42.897Z,100.00
2023-11-14T17:17:44.486Z,100.00
2023-11-14T17:19:46.077Z,100.00
2023-11-14T17:21:48.944Z,100.00
2023-11-14T17:23:50.536Z,100.00
2023-11-14T17:25:52.049Z,100.00
2023-11-14T17:27:53.586Z,100.00
2023-11-14T17:29:55.103Z,100.00
2023-11-14T17:31:56.662Z,100.00
2023-11-14T17:33:58.224Z,100.00
2023-11-14T17:35:59.878Z,100.00
2023-11-14T17:38:02.860Z,100.00
2023-11-14T17:40:05.613Z,100.00
2023-11-14T17:42:07.324Z,100.00
2023-11-14T17:44:09.020Z,100.00
2023-11-14T17:46:10.654Z,100.00
2023-11-14T17:48:12.364Z,100.00
2023-11-14T17:50:14.135Z,100.00
2023-11-14T17:52:15.859Z,100.00
2023-11-14T17:54:18.908Z,100.00
2023-11-14T17:56:20.647Z,100.00
2023-11-14T17:58:22.209Z,100.00
2023-11-14T18:00:23.870Z,100.00
2023-11-14T18:02:25.481Z,100.00
2023-11-14T18:04:27.124Z,100.00
2023-11-14T18:06:28.786Z,100.00
2023-11-14T18:08:30.508Z,100.00
2023-11-14T18:10:33.522Z,100.00
2023-11-14T18:12:35.098Z,100.00
2023-11-14T18:14:36.665Z,100.00
2023-11-14T18:16:38.241Z,100.00
2023-11-14T18:18:39.840Z,100.00
2023-11-14T18:20:41.460Z,100.00
2023-11-14T18:22:43.077Z,100.00
2023-11-14T18:24:44.631Z,100.00
2023-11-14T18:26:47.598Z,100.00
2023-11-14T18:28:49.225Z,100.00
2023-11-14T18:30:50.802Z,100.00
2023-11-14T18:32:52.456Z,100.00
2023-11-14T18:34:53.984Z,100.00
2023-11-14T18:36:55.492Z,100.00
2023-11-14T18:38:57.034Z,100.00
2023-11-14T18:40:58.577Z,100.00
2023-11-14T18:43:01.591Z,100.00
2023-11-14T18:45:07.780Z,100.00
2023-11-14T18:47:10.119Z,100.00
2023-11-14T18:49:11.840Z,100.00
2023-11-14T18:51:13.607Z,100.00
2023-11-14T18:53:15.194Z,100.00
2023-11-14T18:55:16.807Z,100.00
2023-11-14T18:57:18.415Z,100.00
2023-11-14T18:59:21.331Z,100.00
2023-11-14T19:01:22.957Z,100.00
2023-11-14T19:03:24.762Z,100.00
2023-11-14T19:05:26.818Z,100.00
2023-11-14T19:07:28.518Z,100.00
2023-11-14T19:09:30.032Z,100.00
2023-11-14T19:11:31.546Z,100.00
2023-11-14T19:13:33.161Z,100.00
2023-11-14T19:15:36.209Z,100.00
2023-11-14T19:17:37.904Z,100.00
2023-11-14T19:19:39.588Z,100.00
2023-11-14T19:21:45.490Z,100.00
2023-11-14T19:23:48.121Z,100.00
2023-11-14T19:25:49.819Z,100.00
2023-11-14T19:27:51.345Z,100.00
2023-11-14T19:29:52.834Z,100.00
2023-11-14T19:31:55.767Z,100.00
2023-11-14T19:33:57.300Z,100.00
2023-11-14T19:35:58.812Z,100.00
2023-11-14T19:38:00.338Z,100.00
2023-11-14T19:40:01.873Z,100.00
2023-11-14T19:42:03.970Z,100.00
2023-11-14T19:44:05.724Z,100.00
2023-11-14T19:46:07.261Z,100.00
2023-11-14T19:48:10.160Z,100.00
2023-11-14T19:50:11.774Z,100.00
2023-11-14T19:52:14.058Z,100.00
2023-11-14T19:54:15.665Z,100.00
2023-11-14T19:56:17.269Z,100.00
2023-11-14T19:58:18.823Z,100.00
2023-11-14T20:00:20.644Z,100.00
2023-11-14T20:02:22.251Z,100.00
2023-11-14T20:04:25.223Z,100.00
2023-11-14T20:06:26.842Z,100.00
2023-11-14T20:08:28.435Z,100.00
2023-11-14T20:10:30.335Z,100.00
2023-11-14T20:12:31.932Z,100.00
2023-11-14T20:14:33.593Z,100.00
2023-11-14T20:16:35.221Z,100.00
2023-11-14T20:18:36.841Z,100.00
2023-11-14T20:20:39.744Z,100.00
2023-11-14T20:22:41.645Z,100.00
2023-11-14T20:24:43.240Z,100.00
2023-11-14T20:26:44.977Z,100.00
2023-11-14T20:28:46.610Z,100.00
2023-11-14T20:30:48.183Z,100.00
2023-11-14T20:32:49.874Z,100.00
2023-11-14T20:34:51.467Z,100.00
2023-11-14T20:36:54.358Z,100.00
2023-11-14T20:38:56.000Z,100.00
2023-11-14T20:40:57.568Z,100.00
2023-11-14T20:42:59.089Z,100.00
2023-11-14T20:45:00.950Z,100.00
2023-11-14T20:47:02.497Z,100.00
2023-11-14T20:49:04.400Z,100.00
2023-11-14T20:51:14.262Z,100.00
2023-11-14T20:53:25.125Z,100.00
2023-11-14T20:55:26.677Z,100.00
2023-11-14T20:57:28.205Z,100.00
2023-11-14T20:59:29.738Z,100.00
2023-11-14T21:01:31.315Z,100.00
2023-11-14T21:03:32.882Z,100.00
2023-11-14T21:05:34.473Z,100.00
2023-11-14T21:07:36.037Z,100.00
2023-11-14T21:09:38.934Z,100.00
2023-11-14T21:11:40.609Z,100.00
2023-11-14T21:13:44.141Z,100.00
2023-11-14T21:15:45.700Z,100.00
2023-11-14T21:17:52.717Z,100.00
2023-11-14T21:19:54.979Z,100.00
2023-11-14T21:21:56.477Z,100.00
2023-11-14T21:23:58.565Z,100.00
2023-11-14T21:26:01.477Z,100.00
2023-11-14T21:28:03.051Z,100.00
2023-11-14T21:30:05.631Z,100.00
2023-11-14T21:32:07.212Z,100.00
2023-11-14T21:34:09.225Z,100.00
2023-11-14T21:36:11.587Z,100.00
2023-11-14T21:38:13.180Z,100.00
2023-11-14T21:40:15.261Z,100.00
2023-11-14T21:42:18.265Z,100.00
2023-11-14T21:44:19.926Z,100.00
2023-11-14T21:46:21.510Z,100.00
2023-11-14T21:48:23.628Z,100.00
2023-11-14T21:50:25.238Z,100.00
2023-11-14T21:52:26.959Z,100.00
2023-11-14T21:54:28.600Z,100.00
2023-11-14T21:56:30.160Z,100.00
2023-11-14T21:58:33.184Z,100.00
2023-11-14T22:00:34.752Z,100.00
2023-11-14T22:02:36.370Z,100.00
2023-11-14T22:04:37.941Z,100.00
2023-11-14T22:06:39.454Z,100.00
2023-11-14T22:08:41.023Z,100.00
2023-11-14T22:10:42.617Z,100.00
2023-11-14T22:12:44.416Z,100.00
2023-11-14T22:14:47.373Z,100.00
2023-11-14T22:16:48.933Z,100.00
2023-11-14T22:18:50.444Z,100.00
2023-11-14T22:20:52.041Z,100.00
2023-11-14T22:22:53.545Z,100.00
2023-11-14T22:24:55.082Z,100.00
2023-11-14T22:26:56.633Z,100.00
2023-11-14T22:29:00.221Z,100.00
2023-11-14T22:31:05.067Z,100.00
2023-11-14T22:33:06.710Z,100.00
2023-11-14T22:35:08.540Z,100.00
2023-11-14T22:37:11.830Z,100.00
2023-11-14T22:39:13.517Z,100.00
2023-11-14T22:41:15.145Z,100.00
2023-11-14T22:43:17.424Z,100.00
2023-11-14T22:45:19.203Z,100.00
2023-11-14T22:47:22.091Z,100.00
2023-11-14T22:49:23.617Z,100.00
2023-11-14T22:51:25.283Z,100.00
2023-11-14T22:53:26.826Z,100.00
2023-11-14T22:55:28.531Z,100.00
2023-11-14T22:57:30.072Z,100.00
2023-11-14T22:59:31.680Z,100.00
2023-11-14T23:01:36.722Z,100.00
2023-11-14T23:03:39.684Z,100.00
2023-11-14T23:05:42.002Z,100.00
2023-11-14T23:07:43.523Z,100.00
2023-11-14T23:09:45.038Z,100.00
2023-11-14T23:11:48.348Z,100.00
2023-11-14T23:13:49.978Z,100.00
2023-11-14T23:15:51.475Z,100.00
2023-11-14T23:17:53.165Z,100.00
2023-11-14T23:19:56.096Z,100.00
2023-11-14T23:21:59.927Z,100.00
2023-11-14T23:24:01.789Z,100.00
2023-11-14T23:26:03.524Z,100.00
2023-11-14T23:28:05.290Z,100.00
2023-11-14T23:30:08.202Z,100.00
2023-11-14T23:32:09.700Z,100.00
2023-11-14T23:34:11.200Z,100.00
2023-11-14T23:36:15.165Z,100.00
2023-11-14T23:38:17.716Z,100.00
2023-11-14T23:40:19.628Z,100.00
2023-11-14T23:42:21.220Z,100.00
2023-11-14T23:44:22.824Z,100.00
2023-11-14T23:46:24.503Z,100.00
2023-11-14T23:48:26.130Z,100.00
2023-11-14T23:50:27.827Z,100.00
2023-11-14T23:52:30.911Z,100.00
2023-11-14T23:54:32.578Z,100.00
2023-11-14T23:56:36.527Z,100.00
2023-11-14T23:58:38.687Z,100.00
